Time;durP1;ratioP1;P1;durP2;ratioP2;P2;SDS_P1;SDS_P2;PMS_P1;PMS_P2;Temp;Humidity;BMP_temperature;BMP_pressure;BME280_temperature;BME280_humidity;BME280_pressure;Samples;Min_cycle;Max_cycle;Signal;HPM_P1;HPM_P2
2022/03/03 00:01:04;;;;;;;29.55;15.40;;;5.30;38.20;;;;;;4976983;28;20022;-70
2022/03/03 00:03:29;;;;;;;33.33;15.85;;;5.30;38.20;;;;;;4976374;28;20113;-71
2022/03/03 00:05:55;;;;;;;33.92;15.48;;;5.20;38.20;;;;;;4994387;28;20029;-70
2022/03/03 00:08:21;;;;;;;26.92;14.70;;;5.20;38.20;;;;;;4993856;28;20030;-70
2022/03/03 00:10:46;;;;;;;24.42;13.88;;;5.20;38.20;;;;;;4993772;28;20396;-71
2022/03/03 00:13:12;;;;;;;32.05;15.77;;;5.10;38.20;;;;;;4993956;28;20449;-69
2022/03/03 00:15:38;;;;;;;29.08;14.52;;;5.00;38.30;;;;;;4993110;28;20041;-69
2022/03/03 00:18:03;;;;;;;44.03;19.50;;;5.00;38.40;;;;;;4993875;28;20442;-70
2022/03/03 00:20:29;;;;;;;37.78;17.55;;;5.00;38.40;;;;;;4993404;28;20072;-69
2022/03/03 00:22:55;;;;;;;39.58;18.45;;;5.00;38.60;;;;;;4976311;28;20022;-69
2022/03/03 00:25:23;;;;;;;34.50;16.60;;;4.90;38.60;;;;;;4976108;28;20358;-70
2022/03/03 00:27:48;;;;;;;43.13;19.60;;;4.90;38.70;;;;;;4992297;28;20030;-70
2022/03/03 00:30:14;;;;;;;44.03;20.13;;;4.90;38.80;;;;;;4993982;28;20027;-70
2022/03/03 00:32:40;;;;;;;39.17;18.63;;;4.90;38.90;;;;;;4993127;28;20042;-71
2022/03/03 00:35:10;;;;;;;45.28;19.70;;;4.90;39.00;;;;;;4993552;28;20492;-71
2022/03/03 00:37:37;;;;;;;30.20;15.32;;;4.90;39.10;;;;;;4993376;28;20043;-70
2022/03/03 00:40:04;;;;;;;33.83;16.70;;;4.90;39.10;;;;;;4993555;28;20018;-70
2022/03/03 00:42:31;;;;;;;31.85;17.02;;;4.80;39.20;;;;;;4993182;28;20022;-70
2022/03/03 00:44:57;;;;;;;35.63;17.58;;;4.90;39.30;;;;;;4976035;28;20030;-73
2022/03/03 00:47:22;;;;;;;35.20;17.55;;;4.80;39.40;;;;;;4993621;28;20022;-71
2022/03/03 00:49:48;;;;;;;43.55;20.00;;;4.90;39.50;;;;;;4975599;28;20448;-71
2022/03/03 00:52:14;;;;;;;32.10;16.20;;;4.90;39.50;;;;;;4993215;28;20026;-70
2022/03/03 00:54:39;;;;;;;31.92;16.45;;;4.90;39.50;;;;;;4975491;28;20038;-70
2022/03/03 00:57:05;;;;;;;31.73;16.42;;;4.90;39.50;;;;;;4993457;28;20026;-71
2022/03/03 00:59:31;;;;;;;47.38;21.38;;;4.80;39.60;;;;;;4991446;28;20053;-71
2022/03/03 01:01:56;;;;;;;32.40;16.00;;;4.80;39.70;;;;;;4993129;28;20018;-69
2022/03/03 01:04:22;;;;;;;26.58;14.80;;;4.80;39.80;;;;;;4992248;28;20358;-70
2022/03/03 01:06:49;;;;;;;31.70;16.38;;;4.80;39.80;;;;;;4992773;28;20026;-71
2022/03/03 01:09:14;;;;;;;35.05;18.05;;;4.80;39.80;;;;;;4993007;28;20023;-70
2022/03/03 01:11:40;;;;;;;36.03;18.65;;;4.80;39.80;;;;;;4992642;28;20484;-71
2022/03/03 01:14:06;;;;;;;34.78;18.30;;;4.80;39.80;;;;;;4992762;28;20086;-70
2022/03/03 01:16:32;;;;;;;35.33;16.77;;;4.80;39.80;;;;;;4992664;28;20034;-69
2022/03/03 01:18:58;;;;;;;26.58;15.43;;;4.80;39.90;;;;;;4992949;28;20457;-71
2022/03/03 01:21:24;;;;;;;37.75;18.17;;;4.80;39.90;;;;;;4992999;28;20073;-72
2022/03/03 01:23:50;;;;;;;34.67;17.75;;;4.80;40.00;;;;;;4992280;28;20034;-70
2022/03/03 01:26:16;;;;;;;34.08;16.70;;;4.80;40.00;;;;;;4992983;28;20093;-71
2022/03/03 01:28:41;;;;;;;36.38;18.10;;;4.80;40.00;;;;;;4975152;28;20018;-70
2022/03/03 01:31:07;;;;;;;45.72;21.00;;;4.80;40.00;;;;;;4975455;28;20113;-70
2022/03/03 01:33:34;;;;;;;38.13;17.23;;;4.80;40.10;;;;;;4992257;28;20138;-70
2022/03/03 01:35:59;;;;;;;35.65;15.93;;;4.80;40.00;;;;;;4992948;28;20141;-70
2022/03/03 01:38:25;;;;;;;30.75;16.23;;;4.80;40.00;;;;;;4991934;28;20028;-70
2022/03/03 01:40:50;;;;;;;28.15;15.40;;;4.80;40.10;;;;;;4975058;28;20453;-70
2022/03/03 01:43:16;;;;;;;30.60;16.30;;;4.80;40.10;;;;;;4993132;28;20022;-71
2022/03/03 01:45:42;;;;;;;27.08;15.45;;;4.70;40.10;;;;;;4974648;28;20026;-69
2022/03/03 01:48:08;;;;;;;29.15;14.85;;;4.70;40.10;;;;;;4993137;28;20062;-71
2022/03/03 01:50:34;;;;;;;30.45;14.85;;;4.70;40.20;;;;;;4992097;28;20476;-70
2022/03/03 01:52:59;;;;;;;25.77;15.07;;;4.70;40.10;;;;;;4993088;28;20077;-70
2022/03/03 01:55:25;;;;;;;26.48;15.27;;;4.70;40.20;;;;;;4991717;28;20038;-70
2022/03/03 01:57:52;;;;;;;26.67;16.17;;;4.60;40.30;;;;;;4991862;28;20385;-70
2022/03/03 02:00:18;;;;;;;28.10;15.13;;;4.60;40.50;;;;;;4991961;28;20030;-63
2022/03/03 02:02:46;;;;;;;26.35;15.25;;;4.60;40.60;;;;;;4991276;28;20035;-63
2022/03/03 02:05:12;;;;;;;26.55;15.02;;;4.60;40.60;;;;;;4992023;28;20110;-62
2022/03/03 02:07:38;;;;;;;24.85;15.23;;;4.60;40.90;;;;;;4992028;28;20113;-63
2022/03/03 02:10:04;;;;;;;30.73;15.50;;;4.60;40.90;;;;;;4992307;28;20027;-63
2022/03/03 02:12:31;;;;;;;27.23;15.43;;;4.50;41.20;;;;;;4992481;28;20077;-64
2022/03/03 02:14:57;;;;;;;28.15;15.20;;;4.50;41.10;;;;;;4991867;28;20042;-63
2022/03/03 02:17:22;;;;;;;26.80;15.77;;;4.50;41.10;;;;;;4992167;28;20130;-63
2022/03/03 02:19:48;;;;;;;31.52;18.05;;;4.40;41.20;;;;;;4991396;28;20095;-64
2022/03/03 02:22:14;;;;;;;27.55;16.00;;;4.40;41.20;;;;;;4974826;28;20468;-63
2022/03/03 02:24:40;;;;;;;36.75;19.92;;;4.40;41.20;;;;;;4974398;28;20089;-63
2022/03/03 02:27:07;;;;;;;33.35;18.13;;;4.40;41.20;;;;;;4992337;28;20030;-64
2022/03/03 02:29:34;;;;;;;32.50;16.98;;;4.40;41.20;;;;;;4992020;28;20105;-64
2022/03/03 02:32:01;;;;;;;31.08;16.85;;;4.40;41.10;;;;;;4992608;28;20385;-64
2022/03/03 02:34:27;;;;;;;33.90;16.60;;;4.40;41.20;;;;;;4952696;28;20094;-64
2022/03/03 02:36:52;;;;;;;33.45;18.20;;;4.40;41.10;;;;;;4952869;29;20470;-64
2022/03/03 02:39:19;;;;;;;33.25;17.77;;;4.40;41.10;;;;;;4953288;29;20094;-64
2022/03/03 02:41:44;;;;;;;27.42;15.77;;;4.40;41.20;;;;;;4953150;29;20434;-65
2022/03/03 02:44:10;;;;;;;30.13;16.48;;;4.30;41.30;;;;;;4953321;29;20027;-62
2022/03/03 02:46:36;;;;;;;27.90;15.95;;;4.30;41.30;;;;;;4951830;29;20024;-61
2022/03/03 02:49:02;;;;;;;29.40;14.48;;;4.30;41.30;;;;;;4954437;28;20031;-63
2022/03/03 02:51:28;;;;;;;28.23;15.10;;;4.30;41.30;;;;;;4955518;29;20089;-62
2022/03/03 02:53:54;;;;;;;31.15;15.82;;;4.30;41.50;;;;;;4956107;29;20526;-63
2022/03/03 02:56:20;;;;;;;28.85;15.60;;;4.30;41.60;;;;;;4956925;29;20521;-63
2022/03/03 02:58:45;;;;;;;27.45;15.70;;;4.30;41.70;;;;;;4956409;29;20068;-63
2022/03/03 03:01:11;;;;;;;28.90;14.82;;;4.30;41.60;;;;;;4957142;29;20038;-64
2022/03/03 03:03:38;;;;;;;23.55;14.10;;;4.30;41.70;;;;;;4955413;29;20082;-64
2022/03/03 03:06:04;;;;;;;26.65;15.52;;;4.30;41.70;;;;;;4955498;29;20526;-65
2022/03/03 03:08:30;;;;;;;28.85;16.08;;;4.20;41.70;;;;;;4956852;29;20032;-63
2022/03/03 03:10:55;;;;;;;29.85;15.35;;;4.20;41.80;;;;;;4954838;29;20079;-63
2022/03/03 03:13:21;;;;;;;34.28;14.90;;;4.20;42.00;;;;;;4957007;29;20375;-64
2022/03/03 03:15:47;;;;;;;27.90;16.67;;;4.10;42.10;;;;;;4956425;29;20043;-65
2022/03/03 03:18:19;;;;;;;27.67;15.77;;;4.10;42.20;;;;;;4956253;29;20423;-62
2022/03/03 03:20:47;;;;;;;24.63;14.70;;;4.10;42.30;;;;;;4955970;29;20079;-63
2022/03/03 03:23:15;;;;;;;30.00;16.70;;;4.00;42.30;;;;;;4956290;29;20031;-62
2022/03/03 03:25:43;;;;;;;26.60;15.25;;;4.00;42.20;;;;;;4955886;28;20062;-65
2022/03/03 03:28:10;;;;;;;30.85;16.45;;;4.00;42.20;;;;;;4956354;29;20031;-64
2022/03/03 03:30:36;;;;;;;32.22;17.92;;;4.00;42.10;;;;;;4954966;29;20032;-63
2022/03/03 03:33:03;;;;;;;30.63;17.25;;;4.00;42.30;;;;;;4953970;28;20047;-64
2022/03/03 03:35:29;;;;;;;31.45;16.90;;;4.00;42.20;;;;;;4956124;29;20071;-63
2022/03/03 03:37:55;;;;;;;28.20;16.40;;;4.00;42.10;;;;;;4954517;29;20121;-64
2022/03/03 03:40:21;;;;;;;31.65;17.27;;;4.00;42.00;;;;;;4954756;29;20467;-63
2022/03/03 03:42:47;;;;;;;28.05;15.88;;;4.00;42.00;;;;;;4955151;29;20031;-63
2022/03/03 03:45:14;;;;;;;27.02;15.75;;;4.00;42.00;;;;;;4956049;29;20041;-63
2022/03/03 03:47:40;;;;;;;32.70;16.35;;;4.00;42.10;;;;;;4953945;29;20122;-63
2022/03/03 03:50:09;;;;;;;31.38;16.75;;;4.00;42.30;;;;;;4955830;29;20027;-65
2022/03/03 03:52:36;;;;;;;30.95;16.00;;;4.00;42.30;;;;;;4954646;29;20151;-66
2022/03/03 03:55:02;;;;;;;29.75;16.63;;;3.90;42.40;;;;;;4953923;29;20051;-63
2022/03/03 03:57:28;;;;;;;29.83;16.35;;;3.90;42.70;;;;;;4955537;29;20023;-62
2022/03/03 04:00:13;;;;;;;28.13;15.23;;;3.90;42.80;;;;;;4954586;28;20032;-64
2022/03/03 04:02:43;;;;;;;28.90;16.35;;;3.90;42.90;;;;;;4955434;29;20478;-63
2022/03/03 04:05:09;;;;;;;33.50;17.50;;;3.90;43.10;;;;;;4955615;29;20367;-64
2022/03/03 04:07:35;;;;;;;31.92;16.33;;;3.90;43.10;;;;;;4955620;29;20031;-64
2022/03/03 04:10:00;;;;;;;25.48;15.65;;;3.90;43.40;;;;;;4954923;29;20536;-64
2022/03/03 04:12:26;;;;;;;28.75;16.13;;;3.80;43.60;;;;;;4955184;29;20027;-64
2022/03/03 04:14:52;;;;;;;27.10;15.55;;;3.80;43.60;;;;;;4954373;29;20067;-63
2022/03/03 04:17:18;;;;;;;31.90;17.02;;;3.80;43.90;;;;;;4955044;29;20031;-63
2022/03/03 04:19:43;;;;;;;30.67;16.63;;;3.70;43.90;;;;;;4954938;29;20028;-63
2022/03/03 04:22:09;;;;;;;28.38;16.27;;;3.70;44.00;;;;;;4955136;29;20027;-63
2022/03/03 04:24:35;;;;;;;27.15;15.13;;;3.70;44.10;;;;;;4954879;29;20032;-63
2022/03/03 04:27:00;;;;;;;35.53;17.15;;;3.80;44.20;;;;;;4954409;29;20023;-63
2022/03/03 04:29:26;;;;;;;30.90;16.83;;;3.70;44.40;;;;;;4954893;29;20023;-63
2022/03/03 04:31:53;;;;;;;27.52;15.85;;;3.70;44.50;;;;;;4954424;29;20035;-63
2022/03/03 04:34:20;;;;;;;27.33;16.00;;;3.70;44.50;;;;;;4953456;28;20051;-63
2022/03/03 04:36:46;;;;;;;27.92;15.88;;;3.70;44.60;;;;;;4954459;29;20027;-63
2022/03/03 04:39:13;;;;;;;29.58;16.40;;;3.60;44.60;;;;;;4954863;29;20059;-63
2022/03/03 04:41:39;;;;;;;30.50;17.23;;;3.60;44.40;;;;;;4954904;29;20043;-63
2022/03/03 04:44:05;;;;;;;33.03;17.80;;;3.60;44.20;;;;;;4954025;29;20471;-63
2022/03/03 04:46:31;;;;;;;30.45;17.02;;;3.70;44.20;;;;;;4954560;29;20082;-63
2022/03/03 04:48:59;;;;;;;30.25;15.88;;;3.70;44.20;;;;;;4953989;29;20031;-64
2022/03/03 04:51:26;;;;;;;31.63;17.33;;;3.60;44.00;;;;;;4953513;29;20051;-63
2022/03/03 04:53:52;;;;;;;32.08;17.00;;;3.60;44.10;;;;;;4953897;29;20046;-64
2022/03/03 04:56:18;;;;;;;33.33;16.75;;;3.60;44.10;;;;;;4953402;29;20375;-64
2022/03/03 04:58:44;;;;;;;30.83;17.50;;;3.60;44.10;;;;;;4953264;29;20043;-63
2022/03/03 05:01:11;;;;;;;33.00;18.67;;;3.60;44.50;;;;;;4954581;29;20109;-64
2022/03/03 05:03:37;;;;;;;27.92;17.05;;;3.60;44.80;;;;;;4954377;29;20027;-64
2022/03/03 05:06:03;;;;;;;33.35;18.15;;;3.50;45.70;;;;;;4953930;29;20086;-63
2022/03/03 05:08:29;;;;;;;30.88;17.48;;;3.50;45.40;;;;;;4953181;29;20047;-64
2022/03/03 05:10:54;;;;;;;34.42;17.60;;;3.40;45.70;;;;;;4953623;29;20382;-64
2022/03/03 05:13:20;;;;;;;30.42;17.70;;;3.40;45.90;;;;;;4954533;28;20035;-63
2022/03/03 05:15:46;;;;;;;31.02;16.48;;;3.30;46.50;;;;;;4953936;29;20031;-63
2022/03/03 05:18:12;;;;;;;33.08;18.08;;;3.30;46.10;;;;;;4954112;29;20106;-63
2022/03/03 05:20:38;;;;;;;34.63;16.65;;;3.20;46.30;;;;;;4954295;29;20039;-63
2022/03/03 05:23:04;;;;;;;30.45;16.83;;;3.20;46.40;;;;;;4953279;29;20027;-63
2022/03/03 05:25:30;;;;;;;27.95;16.58;;;3.20;46.50;;;;;;4954201;29;20086;-63
2022/03/03 05:27:59;;;;;;;30.27;17.02;;;3.20;46.60;;;;;;4953369;29;20023;-63
2022/03/03 05:30:24;;;;;;;29.48;16.67;;;3.20;46.70;;;;;;4952395;29;20091;-63
2022/03/03 05:32:50;;;;;;;35.38;17.50;;;3.20;46.90;;;;;;4964188;28;20177;-64
2022/03/03 05:35:18;;;;;;;37.03;17.05;;;3.20;46.90;;;;;;4992697;28;20034;-63
2022/03/03 05:37:45;;;;;;;40.35;16.33;;;3.20;47.20;;;;;;4992721;28;20076;-63
2022/03/03 05:40:11;;;;;;;32.15;17.70;;;3.20;47.90;;;;;;4974820;28;20033;-63
2022/03/03 05:42:38;;;;;;;35.40;17.42;;;3.20;47.40;;;;;;4992498;28;20027;-63
2022/03/03 05:45:05;;;;;;;36.13;18.08;;;3.10;47.60;;;;;;4974670;28;20470;-65
2022/03/03 05:47:30;;;;;;;36.25;16.95;;;3.10;47.50;;;;;;4992454;28;20447;-64
2022/03/03 05:49:57;;;;;;;31.45;17.95;;;3.10;47.60;;;;;;4991988;28;20058;-64
2022/03/03 05:55:08;;;;;;;42.15;18.92;;;3.10;47.60;;;;;;4990964;28;20313;-64
2022/03/03 05:57:38;;;;;;;36.65;19.17;;;3.20;47.70;;;;;;4993689;28;20026;-63
2022/03/03 06:00:12;;;;;;;39.30;20.05;;;3.20;47.90;;;;;;4992984;28;20034;-63
2022/03/03 06:02:41;;;;;;;39.72;20.27;;;3.20;47.80;;;;;;4991913;28;20034;-63
2022/03/03 06:05:08;;;;;;;34.22;18.48;;;3.20;47.80;;;;;;4991815;28;20205;-64
2022/03/03 06:07:39;;;;;;;42.50;18.00;;;3.20;47.80;;;;;;4975059;28;20057;-65
2022/03/03 06:10:06;;;;;;;36.00;18.42;;;3.20;47.80;;;;;;4992118;28;20032;-63
2022/03/03 06:12:34;;;;;;;34.13;17.73;;;3.30;47.60;;;;;;4992297;28;20023;-65
2022/03/03 06:15:04;;;;;;;37.42;17.75;;;3.30;47.70;;;;;;4991281;28;20034;-64
2022/03/03 06:17:31;;;;;;;33.40;17.48;;;3.30;47.60;;;;;;4992320;28;20033;-64
2022/03/03 06:20:00;;;;;;;39.78;18.27;;;3.40;47.50;;;;;;4991597;28;20439;-63
2022/03/03 06:22:26;;;;;;;36.90;18.27;;;3.50;47.30;;;;;;4991828;28;20022;-64
2022/03/03 06:24:51;;;;;;;37.28;18.73;;;3.50;47.20;;;;;;4976841;28;20041;-64
2022/03/03 06:27:17;;;;;;;41.85;19.05;;;3.60;47.10;;;;;;4978399;28;20125;-63
2022/03/03 06:29:43;;;;;;;48.10;19.15;;;3.60;47.20;;;;;;4995560;28;20492;-64
2022/03/03 06:32:09;;;;;;;56.10;19.77;;;3.70;47.20;;;;;;4995198;28;20041;-63
2022/03/03 06:34:35;;;;;;;47.30;18.30;;;3.70;47.30;;;;;;4995851;28;20034;-66
2022/03/03 06:37:01;;;;;;;42.30;19.48;;;3.70;47.50;;;;;;4994762;28;20030;-63
2022/03/03 06:39:26;;;;;;;55.42;20.40;;;3.70;47.50;;;;;;4995508;28;20030;-63
2022/03/03 06:41:53;;;;;;;41.72;19.65;;;3.70;47.70;;;;;;4995350;28;20026;-62
2022/03/03 06:44:20;;;;;;;51.75;20.92;;;3.70;47.70;;;;;;4995934;28;20759;-62
2022/03/03 06:46:46;;;;;;;46.53;20.02;;;3.80;48.00;;;;;;4995499;28;20033;-62
2022/03/03 06:49:12;;;;;;;54.45;21.15;;;3.80;48.30;;;;;;4994639;28;20026;-63
2022/03/03 06:51:41;;;;;;;57.53;21.10;;;3.70;48.60;;;;;;4978097;28;20034;-63
2022/03/03 06:54:13;;;;;;;56.03;21.88;;;3.80;48.60;;;;;;4960990;28;20500;-63
2022/03/03 06:56:51;;;;;;;63.45;19.98;;;3.80;48.90;;;;;;4978039;28;20058;-63
2022/03/03 06:59:23;;;;;;;44.60;19.42;;;3.90;48.60;;;;;;4994823;28;20037;-63
2022/03/03 07:01:50;;;;;;;51.90;20.85;;;3.90;48.40;;;;;;4977625;28;20031;-63
2022/03/03 07:04:18;;;;;;;51.67;21.77;;;4.00;48.20;;;;;;4977081;28;20105;-63
2022/03/03 07:06:45;;;;;;;67.15;22.23;;;4.10;47.90;;;;;;4995304;28;20105;-63
2022/03/03 07:09:11;;;;;;;54.80;21.15;;;4.10;47.80;;;;;;4977325;28;20465;-64
2022/03/03 07:11:39;;;;;;;56.33;21.85;;;4.10;47.80;;;;;;4977550;28;20461;-63
2022/03/03 07:14:05;;;;;;;41.22;21.33;;;4.20;48.00;;;;;;4994216;28;20113;-63
2022/03/03 07:16:37;;;;;;;41.58;22.30;;;6.20;47.10;;;;;;4995142;28;20077;-62
2022/03/03 07:19:05;;;;;;;50.92;23.15;;;9.00;43.00;;;;;;4992805;28;20084;-64
2022/03/03 07:21:44;;;;;;;48.50;21.55;;;11.30;38.90;;;;;;4990315;28;20026;-62
2022/03/03 07:24:23;;;;;;;54.85;23.58;;;13.20;35.60;;;;;;4993337;28;20058;-63
2022/03/03 07:26:51;;;;;;;54.00;25.38;;;13.50;31.50;;;;;;4994346;28;20249;-63
2022/03/03 07:29:18;;;;;;;44.13;23.15;;;13.90;31.70;;;;;;4975764;28;20278;-63
2022/03/03 07:31:54;;;;;;;81.18;28.33;;;15.70;30.40;;;;;;4993735;28;20034;-63
2022/03/03 07:34:31;;;;;;;82.57;26.80;;;17.30;28.70;;;;;;4993629;28;20077;-62
2022/03/03 07:37:03;;;;;;;74.60;27.35;;;18.60;27.20;;;;;;4959768;28;20117;-64
2022/03/03 07:39:42;;;;;;;44.20;22.77;;;19.70;26.20;;;;;;4994527;28;20038;-63
2022/03/03 07:42:17;;;;;;;54.92;24.58;;;20.40;25.30;;;;;;4975414;28;20022;-64
2022/03/03 07:44:45;;;;;;;72.05;28.20;;;21.50;24.50;;;;;;4976288;28;20037;-63
2022/03/03 07:47:11;;;;;;;48.92;24.83;;;22.60;23.80;;;;;;4992852;28;20102;-63
2022/03/03 07:49:40;;;;;;;56.95;23.05;;;23.60;22.40;;;;;;4993352;28;20031;-62
2022/03/03 07:52:07;;;;;;;50.95;21.60;;;23.30;22.00;;;;;;4993217;28;20029;-64
2022/03/03 07:54:34;;;;;;;33.70;21.05;;;22.30;22.20;;;;;;4976159;28;20125;-62
2022/03/03 07:57:01;;;;;;;38.75;19.98;;;21.30;22.80;;;;;;4993062;28;20026;-64
2022/03/03 07:59:31;;;;;;;41.08;21.23;;;20.50;22.90;;;;;;4993345;28;20031;-63
2022/03/03 08:01:58;;;;;;;42.60;22.23;;;20.10;23.70;;;;;;4993131;28;20161;-62
2022/03/03 08:04:29;;;;;;;44.90;22.38;;;20.00;23.50;;;;;;4989214;28;20041;-63
2022/03/03 08:06:59;;;;;;;67.93;23.73;;;19.60;23.30;;;;;;4993324;28;20366;-63
2022/03/03 08:09:29;;;;;;;36.25;20.13;;;19.40;23.90;;;;;;4975430;28;20434;-62
2022/03/03 08:11:55;;;;;;;32.17;20.40;;;19.40;23.70;;;;;;4975429;28;20168;-62
2022/03/03 08:14:22;;;;;;;35.38;21.83;;;19.20;23.50;;;;;;4992175;28;20409;-62
2022/03/03 08:16:47;;;;;;;41.78;21.02;;;19.20;23.60;;;;;;4993446;28;20085;-62
2022/03/03 08:19:15;;;;;;;31.42;20.58;;;19.10;23.70;;;;;;4975133;28;20061;-61
2022/03/03 08:21:44;;;;;;;37.53;21.48;;;19.30;23.80;;;;;;4991966;28;20033;-63
2022/03/03 08:24:12;;;;;;;37.50;21.08;;;20.10;23.70;;;;;;4974930;28;20125;-63
2022/03/03 08:26:39;;;;;;;36.03;22.60;;;21.00;23.00;;;;;;4992469;28;20117;-63
2022/03/03 08:29:05;;;;;;;32.88;21.33;;;21.20;22.20;;;;;;4974189;28;20049;-62
2022/03/03 08:31:43;;;;;;;48.38;22.13;;;20.50;22.10;;;;;;4992824;28;20030;-62
2022/03/03 08:34:35;;;;;;;43.55;20.52;;;18.60;22.60;;;;;;4974950;28;20062;-63
2022/03/03 08:37:05;;;;;;;39.00;20.55;;;16.90;23.70;;;;;;4992098;28;20034;-62
2022/03/03 08:39:38;;;;;;;41.05;20.90;;;15.50;25.10;;;;;;4992912;28;20045;-62
2022/03/03 08:42:08;;;;;;;38.23;21.33;;;14.90;25.90;;;;;;4992201;28;20092;-62
2022/03/03 08:44:36;;;;;;;40.00;22.27;;;14.40;26.70;;;;;;4993015;28;20030;-60
2022/03/03 08:47:05;;;;;;;47.13;22.35;;;14.00;26.50;;;;;;4974671;28;20061;-60
2022/03/03 08:49:39;;;;;;;50.15;23.23;;;13.30;27.30;;;;;;4975690;28;20041;-62
2022/03/03 08:52:06;;;;;;;35.08;20.35;;;12.70;27.70;;;;;;4991863;28;20114;-63
2022/03/03 08:54:32;;;;;;;31.25;20.27;;;12.10;28.10;;;;;;4992532;28;20035;-64
2022/03/03 08:56:58;;;;;;;58.50;21.58;;;11.80;28.70;;;;;;4975137;28;20061;-62
2022/03/03 08:59:24;;;;;;;40.58;20.70;;;11.60;28.90;;;;;;4974618;28;20092;-63
2022/03/03 09:01:51;;;;;;;29.98;19.33;;;11.60;28.90;;;;;;4992126;28;20025;-61
2022/03/03 09:04:17;;;;;;;39.75;19.33;;;11.60;28.70;;;;;;4992268;28;20030;-62
2022/03/03 09:06:45;;;;;;;38.85;20.52;;;11.50;28.80;;;;;;4992150;28;20038;-61
2022/03/03 09:09:11;;;;;;;34.63;19.08;;;11.20;29.20;;;;;;4991700;28;20081;-61
2022/03/03 09:11:38;;;;;;;43.30;19.95;;;11.00;29.20;;;;;;4974235;28;20026;-62
2022/03/03 09:14:04;;;;;;;35.05;19.52;;;10.80;29.50;;;;;;4974264;28;20042;-61
2022/03/03 09:16:30;;;;;;;35.83;18.73;;;10.60;29.50;;;;;;4990892;28;20466;-61
2022/03/03 09:18:56;;;;;;;46.47;19.58;;;10.60;29.50;;;;;;4990781;28;20036;-62
2022/03/03 09:21:22;;;;;;;41.53;19.98;;;10.60;29.50;;;;;;4972811;28;20022;-62
2022/03/03 09:23:47;;;;;;;39.70;20.60;;;10.60;29.50;;;;;;4991974;28;20105;-62
2022/03/03 09:26:13;;;;;;;37.72;22.00;;;10.60;29.50;;;;;;4973571;28;20077;-63
2022/03/03 09:28:58;;;;;;;41.13;20.80;;;10.60;29.60;;;;;;4974416;28;20077;-63
2022/03/03 09:31:24;;;;;;;42.17;19.65;;;10.50;29.70;;;;;;4991069;28;20113;-64
2022/03/03 09:33:50;;;;;;;49.67;19.50;;;10.00;30.10;;;;;;4973486;28;20146;-63
2022/03/03 09:36:18;;;;;;;48.05;20.65;;;9.70;30.50;;;;;;4973333;28;20096;-61
2022/03/03 09:38:44;;;;;;;35.47;20.35;;;9.60;30.80;;;;;;4992421;28;20022;-62
2022/03/03 09:41:09;;;;;;;41.22;20.13;;;9.60;30.80;;;;;;4973631;28;20085;-62
2022/03/03 09:43:35;;;;;;;30.67;19.50;;;9.60;31.00;;;;;;4974019;28;20030;-61
2022/03/03 09:46:01;;;;;;;34.50;19.88;;;9.60;31.30;;;;;;4974657;28;20121;-64
2022/03/03 09:48:27;;;;;;;32.88;19.85;;;9.50;31.30;;;;;;4973523;28;20204;-65
2022/03/03 09:50:52;;;;;;;38.85;21.00;;;9.30;32.20;;;;;;4990665;28;20026;-62
2022/03/03 09:53:18;;;;;;;33.05;19.42;;;9.60;31.60;;;;;;4958006;28;20140;-62
2022/03/03 09:55:46;;;;;;;33.92;21.30;;;9.50;31.30;;;;;;4991315;28;20030;-65
2022/03/03 09:58:13;;;;;;;37.20;21.02;;;9.50;31.70;;;;;;4990785;28;20105;-61
2022/03/03 10:00:41;;;;;;;31.77;19.80;;;9.70;31.60;;;;;;4995537;28;20049;-64
2022/03/03 10:03:10;;;;;;;38.92;19.38;;;9.80;31.20;;;;;;4977892;28;20027;-58
2022/03/03 10:05:39;;;;;;;34.22;18.98;;;9.80;31.50;;;;;;4978206;28;20030;-61
2022/03/03 10:08:10;;;;;;;45.92;22.00;;;9.70;31.10;;;;;;4978226;28;20030;-65
2022/03/03 10:10:39;;;;;;;48.40;20.42;;;9.80;31.20;;;;;;4975737;28;20030;-63
2022/03/03 10:13:05;;;;;;;34.10;19.23;;;9.90;31.00;;;;;;4994549;28;20018;-62
2022/03/03 10:15:33;;;;;;;34.63;20.15;;;9.80;30.90;;;;;;4977191;28;20026;-61
2022/03/03 10:18:02;;;;;;;34.42;20.45;;;9.80;31.20;;;;;;4977775;28;20053;-60
2022/03/03 10:20:30;;;;;;;40.28;19.92;;;10.00;31.10;;;;;;4976377;28;20027;-56
2022/03/03 10:22:59;;;;;;;33.60;20.15;;;10.00;30.80;;;;;;4977961;28;20081;-61
2022/03/03 10:25:34;;;;;;;33.78;19.35;;;9.80;31.10;;;;;;4975023;28;20088;-65
2022/03/03 10:28:10;;;;;;;30.35;19.65;;;10.00;30.80;;;;;;4995404;28;20470;-61
2022/03/03 10:30:54;;;;;;;34.72;18.95;;;10.10;30.80;;;;;;4995239;28;20027;-62
2022/03/03 10:33:22;;;;;;;35.70;19.38;;;10.00;30.50;;;;;;4993762;28;20046;-63
2022/03/03 10:36:19;;;;;;;45.90;19.95;;;9.90;30.80;;;;;;4994346;28;20038;-68
2022/03/03 10:38:55;;;;;;;31.13;18.70;;;10.00;30.30;;;;;;4976850;28;20030;-64
2022/03/03 10:41:34;;;;;;;33.55;20.25;;;10.20;30.40;;;;;;4993600;28;20037;-64
2022/03/03 10:44:03;;;;;;;32.38;18.25;;;10.40;30.10;;;;;;4994709;28;20030;-61
2022/03/03 10:46:30;;;;;;;32.75;20.55;;;10.50;29.90;;;;;;4976870;28;20170;-61
2022/03/03 10:48:56;;;;;;;26.73;17.58;;;10.60;29.90;;;;;;4976937;28;20037;-61
2022/03/03 10:51:24;;;;;;;32.85;18.83;;;10.70;29.80;;;;;;4993415;28;20393;-61
2022/03/03 10:53:57;;;;;;;36.08;18.30;;;10.70;29.60;;;;;;4993874;28;20030;-58
2022/03/03 10:56:23;;;;;;;33.30;19.25;;;10.70;29.60;;;;;;4993842;28;20114;-61
2022/03/03 10:58:57;;;;;;;26.50;16.40;;;10.70;29.60;;;;;;4993784;28;20065;-65
2022/03/03 11:01:32;;;;;;;26.38;16.38;;;10.70;29.10;;;;;;4993478;28;20027;-62
2022/03/03 11:03:59;;;;;;;33.50;21.33;;;10.50;28.90;;;;;;4994065;28;20030;-60
2022/03/03 11:06:30;;;;;;;31.92;19.13;;;10.60;29.00;;;;;;4993717;28;20030;-61
2022/03/03 11:08:59;;;;;;;29.92;17.33;;;10.70;29.10;;;;;;4977087;28;20117;-62
2022/03/03 11:11:26;;;;;;;32.20;15.68;;;10.70;29.10;;;;;;4975589;28;20030;-59
2022/03/03 11:13:53;;;;;;;34.70;17.58;;;10.70;29.00;;;;;;4993850;28;20114;-63
2022/03/03 11:16:25;;;;;;;31.05;15.93;;;10.70;28.90;;;;;;4975968;28;20069;-63
2022/03/03 11:18:51;;;;;;;38.33;19.55;;;10.70;28.70;;;;;;4976097;28;20113;-62
2022/03/03 11:21:18;;;;;;;28.85;17.63;;;10.60;28.80;;;;;;4990551;28;20027;-65
2022/03/03 11:23:54;;;;;;;33.53;17.48;;;10.70;29.20;;;;;;4993899;28;20096;-63
2022/03/03 11:26:23;;;;;;;31.05;19.33;;;10.80;29.30;;;;;;4959222;28;20034;-62
2022/03/03 11:29:07;;;;;;;37.05;21.92;;;10.90;29.30;;;;;;4993736;28;20104;-65
2022/03/03 11:31:34;;;;;;;28.95;18.08;;;10.90;29.30;;;;;;4992668;28;20030;-61
2022/03/03 11:34:22;;;;;;;34.03;18.63;;;10.80;29.50;;;;;;4992568;28;20382;-60
2022/03/03 11:36:49;;;;;;;34.28;19.00;;;10.70;29.50;;;;;;4992340;28;20026;-63
2022/03/03 11:39:34;;;;;;;37.47;20.70;;;10.80;29.50;;;;;;4975296;28;20031;-65
2022/03/03 11:42:15;;;;;;;39.35;20.40;;;10.80;29.40;;;;;;4976105;28;20041;-62
2022/03/03 11:44:41;;;;;;;49.90;19.20;;;11.00;29.40;;;;;;4975545;28;20457;-61
2022/03/03 11:47:37;;;;;;;43.58;19.67;;;11.10;29.20;;;;;;4992283;28;20026;-60
2022/03/03 11:50:19;;;;;;;42.47;19.73;;;11.00;29.00;;;;;;4970706;28;20192;-64
2022/03/03 11:52:59;;;;;;;36.92;18.13;;;11.00;29.00;;;;;;4992975;28;20023;-61
2022/03/03 11:55:30;;;;;;;34.55;20.30;;;11.10;28.90;;;;;;4975109;28;20072;-61
2022/03/03 11:58:13;;;;;;;41.40;23.00;;;11.20;28.60;;;;;;4975408;28;20030;-60
2022/03/03 12:00:42;;;;;;;35.65;20.02;;;11.40;28.60;;;;;;4975315;28;20026;-64
2022/03/03 12:03:22;;;;;;;41.47;20.55;;;11.50;28.80;;;;;;4993041;28;20031;-63
2022/03/03 12:06:09;;;;;;;41.60;21.55;;;11.60;28.70;;;;;;4992650;28;20524;-63
2022/03/03 12:08:37;;;;;;;43.58;19.90;;;11.70;28.50;;;;;;4991035;28;20033;-61
2022/03/03 12:11:15;;;;;;;46.60;21.05;;;11.80;28.40;;;;;;4974833;28;20033;-65
2022/03/03 12:13:46;;;;;;;41.63;20.13;;;11.70;28.40;;;;;;4991805;28;20045;-61
2022/03/03 12:16:32;;;;;;;28.92;19.58;;;11.70;28.40;;;;;;4992789;28;20030;-59
2022/03/03 12:21:48;;;;;;;41.00;20.77;;;11.80;28.00;;;;;;4992337;28;20110;-58
2022/03/03 12:24:15;;;;;;;34.30;19.50;;;12.00;28.20;;;;;;4974937;28;20105;-60
2022/03/03 12:26:56;;;;;;;36.75;19.92;;;12.00;28.10;;;;;;4992649;28;20081;-59
2022/03/03 12:29:49;;;;;;;59.20;21.58;;;12.20;27.90;;;;;;4991659;28;20050;-59
2022/03/03 12:32:32;;;;;;;226.07;32.85;;;12.80;28.10;;;;;;4974599;28;20023;-62
2022/03/03 12:35:00;;;;;;;132.45;39.58;;;13.60;26.00;;;;;;4975020;28;20126;-59
2022/03/03 12:37:27;;;;;;;43.45;19.48;;;14.00;26.60;;;;;;4992167;28;20046;-58
2022/03/03 12:39:56;;;;;;;35.00;18.50;;;14.90;26.00;;;;;;4992921;28;20117;-60
2022/03/03 12:42:27;;;;;;;65.45;21.23;;;15.10;25.10;;;;;;4974148;28;20038;-58
2022/03/03 12:44:55;;;;;;;21.60;13.90;;;15.10;24.40;;;;;;4974708;28;20040;-54